createdAt,value
2018-07-31T00:02:27.323Z,23.4
2018-07-31T00:07:29.463Z,23.3
2018-07-31T00:12:26.815Z,23.2
2018-07-31T00:17:28.000Z,23.2
2018-07-31T00:22:27.450Z,23.1
2018-07-31T00:27:27.633Z,23.1
2018-07-31T00:32:27.910Z,22.8
2018-07-31T00:37:27.587Z,22.8
2018-07-31T00:42:28.229Z,22.8
2018-07-31T00:47:27.541Z,22.7
2018-07-31T00:52:28.095Z,22.6
2018-07-31T00:57:27.936Z,22.5
2018-07-31T01:02:27.948Z,22.4
2018-07-31T01:07:27.299Z,22.4
2018-07-31T01:12:28.388Z,22.3
2018-07-31T01:17:29.027Z,22.3
2018-07-31T01:22:27.218Z,22.2
2018-07-31T01:27:27.557Z,22.1
2018-07-31T01:32:27.512Z,21.9
2018-07-31T01:37:27.479Z,21.9
2018-07-31T01:42:28.416Z,21.8
2018-07-31T01:47:27.460Z,21.8
2018-07-31T01:52:28.234Z,21.8
2018-07-31T01:57:27.188Z,21.8
2018-07-31T02:02:27.541Z,21.8
2018-07-31T02:07:27.459Z,21.5
2018-07-31T02:12:27.080Z,21.5
2018-07-31T02:17:28.650Z,21.5
2018-07-31T02:22:27.719Z,21.4
2018-07-31T02:27:27.858Z,21.2
2018-07-31T02:32:27.900Z,21.2
2018-07-31T02:37:27.626Z,21.2
2018-07-31T02:42:27.453Z,21.1
2018-07-31T02:47:27.296Z,21.0
2018-07-31T02:52:27.463Z,21.0
2018-07-31T02:57:29.019Z,20.9
2018-07-31T03:02:28.457Z,20.9
2018-07-31T03:07:28.100Z,20.8
2018-07-31T03:12:27.268Z,20.8
2018-07-31T03:17:28.793Z,20.7
2018-07-31T03:22:28.787Z,20.7
2018-07-31T03:27:28.023Z,20.5
2018-07-31T03:32:27.449Z,20.5
2018-07-31T03:37:27.997Z,20.5
2018-07-31T03:42:27.288Z,20.4
2018-07-31T03:47:27.747Z,20.4
2018-07-31T03:52:27.907Z,20.3
2018-07-31T03:57:28.002Z,20.3
2018-07-31T04:02:27.685Z,20.3
2018-07-31T04:07:28.350Z,20.2
2018-07-31T04:12:29.102Z,20.3
2018-07-31T04:17:28.264Z,20.3
2018-07-31T04:22:27.872Z,20.4
2018-07-31T04:27:27.916Z,20.3
2018-07-31T04:32:28.186Z,20.3
2018-07-31T04:37:28.471Z,20.4
2018-07-31T04:42:27.620Z,20.3
2018-07-31T04:47:28.882Z,20.6
2018-07-31T04:52:27.550Z,20.9
2018-07-31T04:57:27.724Z,21.1
2018-07-31T05:02:27.164Z,21.6
2018-07-31T05:07:27.805Z,21.5
2018-07-31T05:12:28.230Z,21.6
2018-07-31T05:17:28.209Z,21.6
2018-07-31T05:22:27.872Z,21.8
2018-07-31T05:27:27.614Z,22.0
2018-07-31T05:32:28.880Z,22.3
2018-07-31T05:37:28.050Z,22.5
2018-07-31T05:42:27.786Z,22.8
2018-07-31T05:47:27.348Z,23.2
2018-07-31T05:52:28.049Z,23.4
2018-07-31T05:57:27.861Z,23.7
2018-07-31T06:02:27.965Z,24.0
2018-07-31T06:07:27.643Z,24.4
2018-07-31T06:12:27.362Z,24.4
2018-07-31T06:17:28.380Z,24.6
2018-07-31T06:22:27.313Z,24.9
2018-07-31T06:27:27.541Z,24.9
2018-07-31T06:32:28.078Z,25.3
2018-07-31T06:37:28.295Z,26.0
2018-07-31T06:42:27.611Z,25.9
2018-07-31T06:47:28.835Z,26.3
2018-07-31T06:52:28.124Z,26.6
2018-07-31T06:57:27.767Z,27.2
2018-07-31T07:02:28.580Z,27.2
2018-07-31T07:07:28.481Z,27.6
2018-07-31T07:12:28.557Z,27.9
2018-07-31T07:17:28.424Z,28.5
2018-07-31T07:22:28.018Z,28.4
2018-07-31T07:27:28.493Z,29.0
2018-07-31T07:32:28.679Z,29.3
2018-07-31T07:37:28.437Z,29.3
2018-07-31T07:42:27.295Z,29.6
2018-07-31T07:47:28.519Z,30.0
2018-07-31T07:52:28.241Z,30.5
2018-07-31T07:57:28.150Z,30.5
2018-07-31T08:02:28.099Z,30.9
2018-07-31T08:07:28.020Z,31.2
2018-07-31T08:12:28.776Z,31.5
2018-07-31T08:17:28.584Z,31.9
2018-07-31T08:22:28.175Z,32.3
2018-07-31T08:27:27.121Z,32.8
2018-07-31T08:32:28.723Z,33.2
2018-07-31T08:37:27.966Z,33.7
2018-07-31T08:42:28.143Z,34.0
2018-07-31T08:47:28.552Z,34.8
2018-07-31T08:52:28.256Z,34.7
2018-07-31T08:57:27.112Z,35.0
2018-07-31T09:02:29.791Z,35.3
2018-07-31T09:07:28.400Z,35.6
2018-07-31T09:12:27.907Z,36.0
2018-07-31T09:17:28.906Z,36.3
2018-07-31T09:22:28.442Z,36.6
2018-07-31T09:27:28.822Z,36.9
2018-07-31T09:32:27.654Z,37.4
2018-07-31T09:37:28.902Z,37.7
2018-07-31T09:42:28.139Z,37.6
2018-07-31T09:47:27.484Z,37.9
2018-07-31T09:52:27.680Z,38.4
2018-07-31T09:57:28.080Z,38.3
2018-07-31T10:02:29.224Z,38.7
2018-07-31T10:07:28.287Z,39.0
2018-07-31T10:12:28.069Z,39.2
2018-07-31T10:17:28.308Z,39.6
2018-07-31T10:22:27.811Z,39.7
2018-07-31T10:27:27.610Z,39.6
2018-07-31T10:32:27.972Z,39.6
2018-07-31T10:37:27.754Z,40.5
2018-07-31T10:42:27.775Z,40.4
2018-07-31T10:47:29.282Z,41.0
2018-07-31T10:52:27.817Z,41.5
2018-07-31T10:57:27.539Z,41.7
2018-07-31T11:02:28.425Z,41.9
2018-07-31T11:07:27.944Z,42.3
2018-07-31T11:12:29.825Z,42.3
2018-07-31T11:17:27.869Z,42.0
2018-07-31T11:22:27.815Z,40.8
2018-07-31T11:27:29.015Z,38.1
2018-07-31T11:32:28.056Z,38.1
2018-07-31T11:37:27.766Z,37.2
2018-07-31T11:42:28.105Z,36.6
2018-07-31T11:47:28.252Z,36.4
2018-07-31T11:52:28.620Z,36.7
2018-07-31T11:57:27.047Z,37.6
2018-07-31T12:02:27.442Z,37.5
2018-07-31T12:07:28.298Z,37.3
2018-07-31T12:12:27.364Z,37.0
2018-07-31T12:17:28.352Z,36.9
2018-07-31T12:22:27.629Z,37.3
2018-07-31T12:27:27.625Z,37.4
2018-07-31T12:32:28.147Z,37.7
2018-07-31T12:37:28.127Z,38.3
2018-07-31T12:42:27.774Z,38.6
2018-07-31T12:47:28.240Z,38.6
2018-07-31T12:52:28.100Z,38.6
2018-07-31T12:57:28.178Z,38.5
2018-07-31T13:02:27.761Z,38.3
2018-07-31T13:07:28.796Z,38.5
2018-07-31T13:12:28.126Z,38.8
2018-07-31T13:17:28.602Z,39.0
2018-07-31T13:22:28.405Z,39.2
2018-07-31T13:27:27.456Z,39.4
2018-07-31T13:32:27.890Z,39.6
2018-07-31T13:37:27.148Z,39.8
2018-07-31T13:42:28.158Z,40.3
2018-07-31T13:47:28.543Z,41.6
2018-07-31T13:52:27.841Z,41.6
2018-07-31T13:57:28.332Z,41.8
2018-07-31T14:02:28.094Z,41.8
2018-07-31T14:07:27.993Z,42.0
2018-07-31T14:12:28.500Z,41.2
2018-07-31T14:17:28.282Z,40.7
2018-07-31T14:22:27.055Z,40.5
2018-07-31T14:27:27.849Z,40.2
2018-07-31T14:32:28.464Z,39.8
2018-07-31T14:37:28.251Z,40.0
2018-07-31T14:42:28.085Z,40.6
2018-07-31T14:47:28.120Z,42.2
2018-07-31T14:52:28.002Z,44.1
2018-07-31T14:57:27.825Z,46.3
2018-07-31T15:02:28.455Z,47.4
2018-07-31T15:07:28.259Z,48.7
2018-07-31T15:12:28.003Z,47.1
2018-07-31T15:17:28.634Z,48.9
2018-07-31T15:22:27.459Z,50.2
2018-07-31T15:27:27.214Z,51.4
2018-07-31T15:32:29.446Z,51.9
2018-07-31T15:37:28.116Z,52.8
2018-07-31T15:42:28.737Z,53.4
2018-07-31T15:47:29.094Z,44.2
2018-07-31T15:52:28.158Z,41.4
2018-07-31T15:57:28.130Z,41.3
2018-07-31T16:02:28.488Z,39.5
2018-07-31T16:07:28.386Z,37.6
2018-07-31T16:12:27.337Z,37.6
2018-07-31T16:17:28.192Z,37.0
2018-07-31T16:22:28.412Z,36.0
2018-07-31T16:27:28.667Z,35.9
2018-07-31T16:32:27.595Z,35.6
2018-07-31T16:37:27.810Z,35.4
2018-07-31T16:42:27.656Z,35.2
2018-07-31T16:47:28.568Z,35.0
2018-07-31T16:52:27.430Z,34.9
2018-07-31T16:57:27.085Z,34.5
2018-07-31T17:02:28.309Z,34.2
2018-07-31T17:07:29.475Z,33.8
2018-07-31T17:12:28.435Z,31.7
2018-07-31T17:17:28.352Z,30.2
2018-07-31T17:22:27.618Z,30.1
2018-07-31T17:27:27.938Z,27.9
2018-07-31T17:32:28.088Z,26.6
2018-07-31T17:37:28.069Z,26.0
2018-07-31T17:42:27.271Z,25.9
2018-07-31T17:47:27.849Z,26.0
2018-07-31T17:52:27.579Z,26.3
2018-07-31T17:57:27.327Z,26.5
2018-07-31T18:02:28.861Z,26.7
2018-07-31T18:07:29.224Z,26.9
2018-07-31T18:12:28.569Z,27.1
2018-07-31T18:17:28.713Z,26.9
2018-07-31T18:22:27.477Z,26.6
2018-07-31T18:27:28.368Z,26.6
2018-07-31T18:32:28.488Z,26.9
2018-07-31T18:37:28.227Z,26.8
2018-07-31T18:42:28.504Z,27.1
2018-07-31T18:47:28.160Z,27.1
2018-07-31T18:52:28.071Z,27.1
2018-07-31T18:57:27.509Z,27.0
2018-07-31T19:02:28.337Z,27.0
2018-07-31T19:07:28.623Z,26.8
2018-07-31T19:12:27.450Z,26.8
2018-07-31T19:17:27.415Z,26.6
2018-07-31T19:22:27.974Z,26.4
2018-07-31T19:27:27.753Z,26.3
2018-07-31T19:32:28.281Z,26.4
2018-07-31T19:37:27.167Z,26.5
2018-07-31T19:42:28.005Z,26.6
2018-07-31T19:47:27.216Z,26.7
2018-07-31T19:52:28.117Z,26.8
2018-07-31T19:57:28.221Z,26.7
2018-07-31T20:02:27.616Z,26.7
2018-07-31T20:07:28.479Z,26.6
2018-07-31T20:12:28.240Z,26.5
2018-07-31T20:17:28.091Z,26.4
2018-07-31T20:22:27.778Z,26.4
2018-07-31T20:27:27.178Z,26.3
2018-07-31T20:32:26.891Z,26.3
2018-07-31T20:37:28.539Z,26.3
2018-07-31T20:42:27.532Z,26.0
2018-07-31T20:47:28.319Z,25.7
2018-07-31T20:52:27.811Z,25.4
2018-07-31T20:57:26.833Z,25.1
2018-07-31T21:02:27.310Z,25.1
2018-07-31T21:07:28.542Z,25.2
2018-07-31T21:12:27.285Z,25.2
2018-07-31T21:17:28.079Z,25.2
2018-07-31T21:22:27.109Z,25.3
2018-07-31T21:27:27.233Z,25.3
2018-07-31T21:32:28.436Z,25.3
2018-07-31T21:37:27.648Z,25.3
2018-07-31T21:42:27.441Z,25.1
2018-07-31T21:47:27.192Z,25.1
2018-07-31T21:52:27.362Z,25.1
2018-07-31T21:57:27.480Z,25.1
2018-07-31T22:02:28.185Z,25.1
2018-07-31T22:07:27.243Z,25.0
2018-07-31T22:12:27.398Z,24.9
2018-07-31T22:22:40.896Z,24.7
2018-07-31T22:27:40.730Z,24.7
2018-07-31T22:32:38.931Z,24.7
2018-07-31T22:37:39.793Z,24.6
2018-07-31T22:42:41.672Z,24.6
2018-07-31T22:47:40.022Z,24.6
2018-07-31T22:52:39.185Z,24.5
2018-07-31T22:57:40.106Z,24.2
2018-07-31T23:02:40.136Z,24.1
2018-07-31T23:07:40.531Z,24.0
2018-07-31T23:12:27.485Z,23.6
2018-07-31T23:17:27.614Z,23.6
2018-07-31T23:22:27.505Z,23.3
2018-07-31T23:27:28.240Z,23.1
2018-07-31T23:32:27.601Z,23.0
2018-07-31T23:37:27.413Z,23.0
2018-07-31T23:42:27.680Z,23.1
2018-07-31T23:47:26.806Z,23.2
2018-07-31T23:52:27.075Z,23.1
2018-07-31T23:57:27.326Z,22.8
